sensor_id;sensor_type;location;lat;lon;timestamp;P1;durP1;ratioP1;P2;durP2;ratioP2
72286;SDS011;60221;45.696;16.076;2023-06-26T00:01:04;9.70;;;4.20;;
72286;SDS011;60221;45.696;16.076;2023-06-26T00:03:32;9.70;;;4.10;;
72286;SDS011;60221;45.696;16.076;2023-06-26T00:05:59;8.40;;;4.30;;
72286;SDS011;60221;45.696;16.076;2023-06-26T00:08:27;8.20;;;4.20;;
72286;SDS011;60221;45.696;16.076;2023-06-26T00:10:54;10.90;;;5.30;;
72286;SDS011;60221;45.696;16.076;2023-06-26T00:13:22;8.90;;;5.00;;
72286;SDS011;60221;45.696;16.076;2023-06-26T00:15:49;9.50;;;5.20;;
72286;SDS011;60221;45.696;16.076;2023-06-26T00:18:16;8.30;;;4.70;;
72286;SDS011;60221;45.696;16.076;2023-06-26T00:20:42;8.80;;;4.30;;
72286;SDS011;60221;45.696;16.076;2023-06-26T00:23:10;7.90;;;4.30;;
72286;SDS011;60221;45.696;16.076;2023-06-26T00:25:37;7.90;;;4.40;;
72286;SDS011;60221;45.696;16.076;2023-06-26T00:28:04;10.30;;;4.80;;
72286;SDS011;60221;45.696;16.076;2023-06-26T00:30:31;10.00;;;4.10;;
72286;SDS011;60221;45.696;16.076;2023-06-26T00:32:57;9.40;;;4.30;;
72286;SDS011;60221;45.696;16.076;2023-06-26T00:35:24;9.60;;;4.80;;
72286;SDS011;60221;45.696;16.076;2023-06-26T00:37:51;8.50;;;4.30;;
72286;SDS011;60221;45.696;16.076;2023-06-26T00:40:18;9.50;;;4.30;;
72286;SDS011;60221;45.696;16.076;2023-06-26T00:42:44;10.30;;;4.60;;
72286;SDS011;60221;45.696;16.076;2023-06-26T00:45:13;9.30;;;4.40;;
72286;SDS011;60221;45.696;16.076;2023-06-26T00:47:40;8.30;;;4.90;;
72286;SDS011;60221;45.696;16.076;2023-06-26T00:50:07;8.50;;;4.50;;
72286;SDS011;60221;45.696;16.076;2023-06-26T00:52:34;8.40;;;4.40;;
72286;SDS011;60221;45.696;16.076;2023-06-26T00:55:01;8.20;;;4.70;;
72286;SDS011;60221;45.696;16.076;2023-06-26T00:57:28;8.70;;;4.70;;
72286;SDS011;60221;45.696;16.076;2023-06-26T00:59:56;14.10;;;5.50;;
72286;SDS011;60221;45.696;16.076;2023-06-26T01:02:23;8.90;;;5.30;;
72286;SDS011;60221;45.696;16.076;2023-06-26T01:04:50;9.40;;;4.40;;
72286;SDS011;60221;45.696;16.076;2023-06-26T01:07:17;9.00;;;4.70;;
72286;SDS011;60221;45.696;16.076;2023-06-26T01:09:46;9.20;;;4.90;;
72286;SDS011;60221;45.696;16.076;2023-06-26T01:12:12;8.70;;;4.60;;
72286;SDS011;60221;45.696;16.076;2023-06-26T01:14:39;9.60;;;4.90;;
72286;SDS011;60221;45.696;16.076;2023-06-26T01:17:06;8.70;;;5.00;;
72286;SDS011;60221;45.696;16.076;2023-06-26T01:19:34;11.00;;;4.80;;
72286;SDS011;60221;45.696;16.076;2023-06-26T01:22:12;10.60;;;4.50;;
72286;SDS011;60221;45.696;16.076;2023-06-26T01:24:43;10.40;;;4.90;;
72286;SDS011;60221;45.696;16.076;2023-06-26T01:27:13;11.00;;;5.30;;
72286;SDS011;60221;45.696;16.076;2023-06-26T01:29:40;10.40;;;4.70;;
72286;SDS011;60221;45.696;16.076;2023-06-26T01:32:07;9.40;;;5.40;;
72286;SDS011;60221;45.696;16.076;2023-06-26T01:34:34;8.50;;;4.40;;
72286;SDS011;60221;45.696;16.076;2023-06-26T01:37:01;9.30;;;5.30;;
72286;SDS011;60221;45.696;16.076;2023-06-26T01:39:28;10.40;;;4.80;;
72286;SDS011;60221;45.696;16.076;2023-06-26T01:41:55;8.10;;;4.70;;
72286;SDS011;60221;45.696;16.076;2023-06-26T01:44:32;10.80;;;4.70;;
72286;SDS011;60221;45.696;16.076;2023-06-26T01:47:02;10.40;;;5.00;;
72286;SDS011;60221;45.696;16.076;2023-06-26T01:49:52;8.10;;;4.40;;
72286;SDS011;60221;45.696;16.076;2023-06-26T01:55:09;9.60;;;4.80;;
72286;SDS011;60221;45.696;16.076;2023-06-26T01:57:36;12.50;;;4.50;;
72286;SDS011;60221;45.696;16.076;2023-06-26T02:00:05;9.30;;;4.70;;
72286;SDS011;60221;45.696;16.076;2023-06-26T02:02:40;10.70;;;5.40;;
72286;SDS011;60221;45.696;16.076;2023-06-26T02:05:07;12.10;;;5.30;;
72286;SDS011;60221;45.696;16.076;2023-06-26T02:07:34;9.50;;;5.30;;
72286;SDS011;60221;45.696;16.076;2023-06-26T02:10:02;10.90;;;5.10;;
72286;SDS011;60221;45.696;16.076;2023-06-26T02:12:29;11.70;;;5.70;;
72286;SDS011;60221;45.696;16.076;2023-06-26T02:14:55;16.20;;;5.40;;
72286;SDS011;60221;45.696;16.076;2023-06-26T02:17:23;11.70;;;5.20;;
72286;SDS011;60221;45.696;16.076;2023-06-26T02:19:53;9.40;;;4.70;;
72286;SDS011;60221;45.696;16.076;2023-06-26T02:22:19;10.00;;;5.20;;
72286;SDS011;60221;45.696;16.076;2023-06-26T02:24:47;10.10;;;4.70;;
72286;SDS011;60221;45.696;16.076;2023-06-26T02:27:14;9.10;;;4.90;;
72286;SDS011;60221;45.696;16.076;2023-06-26T02:29:40;10.80;;;5.00;;
72286;SDS011;60221;45.696;16.076;2023-06-26T02:32:08;10.60;;;5.00;;
72286;SDS011;60221;45.696;16.076;2023-06-26T02:34:35;11.80;;;5.20;;
72286;SDS011;60221;45.696;16.076;2023-06-26T02:37:02;11.10;;;5.00;;
72286;SDS011;60221;45.696;16.076;2023-06-26T02:39:29;10.20;;;5.20;;
72286;SDS011;60221;45.696;16.076;2023-06-26T02:41:56;8.20;;;4.40;;
72286;SDS011;60221;45.696;16.076;2023-06-26T02:44:22;9.90;;;5.30;;
72286;SDS011;60221;45.696;16.076;2023-06-26T02:46:50;13.40;;;5.60;;
72286;SDS011;60221;45.696;16.076;2023-06-26T02:49:17;10.40;;;5.20;;
72286;SDS011;60221;45.696;16.076;2023-06-26T02:51:46;9.20;;;4.90;;
72286;SDS011;60221;45.696;16.076;2023-06-26T02:54:19;10.00;;;5.20;;
72286;SDS011;60221;45.696;16.076;2023-06-26T02:56:47;10.50;;;5.60;;
72286;SDS011;60221;45.696;16.076;2023-06-26T02:59:15;10.10;;;5.20;;
72286;SDS011;60221;45.696;16.076;2023-06-26T03:01:42;11.60;;;6.10;;
72286;SDS011;60221;45.696;16.076;2023-06-26T03:04:08;11.30;;;5.80;;
72286;SDS011;60221;45.696;16.076;2023-06-26T03:06:36;9.90;;;5.00;;
72286;SDS011;60221;45.696;16.076;2023-06-26T03:09:03;10.00;;;4.80;;
72286;SDS011;60221;45.696;16.076;2023-06-26T03:11:30;12.60;;;5.50;;
72286;SDS011;60221;45.696;16.076;2023-06-26T03:13:57;9.70;;;4.90;;
72286;SDS011;60221;45.696;16.076;2023-06-26T03:16:24;9.60;;;4.90;;
72286;SDS011;60221;45.696;16.076;2023-06-26T03:18:50;9.00;;;5.10;;
72286;SDS011;60221;45.696;16.076;2023-06-26T03:21:17;11.30;;;5.10;;
72286;SDS011;60221;45.696;16.076;2023-06-26T03:23:44;8.90;;;4.90;;
72286;SDS011;60221;45.696;16.076;2023-06-26T03:26:11;10.00;;;4.90;;
72286;SDS011;60221;45.696;16.076;2023-06-26T03:28:41;12.50;;;5.30;;
72286;SDS011;60221;45.696;16.076;2023-06-26T03:31:08;12.50;;;5.00;;
72286;SDS011;60221;45.696;16.076;2023-06-26T03:33:36;10.00;;;5.00;;
72286;SDS011;60221;45.696;16.076;2023-06-26T03:36:03;8.60;;;4.90;;
72286;SDS011;60221;45.696;16.076;2023-06-26T03:38:30;11.00;;;5.60;;
72286;SDS011;60221;45.696;16.076;2023-06-26T03:40:57;10.20;;;4.50;;
72286;SDS011;60221;45.696;16.076;2023-06-26T03:43:24;11.00;;;5.30;;
72286;SDS011;60221;45.696;16.076;2023-06-26T03:46:12;10.60;;;4.90;;
72286;SDS011;60221;45.696;16.076;2023-06-26T03:48:39;8.50;;;4.70;;
72286;SDS011;60221;45.696;16.076;2023-06-26T03:51:06;9.40;;;4.50;;
72286;SDS011;60221;45.696;16.076;2023-06-26T03:53:33;10.10;;;5.00;;
72286;SDS011;60221;45.696;16.076;2023-06-26T03:56:00;9.80;;;5.10;;
72286;SDS011;60221;45.696;16.076;2023-06-26T03:58:27;8.80;;;5.10;;
72286;SDS011;60221;45.696;16.076;2023-06-26T04:00:53;12.30;;;5.60;;
72286;SDS011;60221;45.696;16.076;2023-06-26T04:03:22;7.70;;;4.50;;
72286;SDS011;60221;45.696;16.076;2023-06-26T04:05:49;9.40;;;5.10;;
72286;SDS011;60221;45.696;16.076;2023-06-26T04:08:16;10.00;;;4.90;;
72286;SDS011;60221;45.696;16.076;2023-06-26T04:10:46;10.40;;;4.90;;
72286;SDS011;60221;45.696;16.076;2023-06-26T04:13:14;9.70;;;5.60;;
72286;SDS011;60221;45.696;16.076;2023-06-26T04:15:40;9.40;;;4.90;;
72286;SDS011;60221;45.696;16.076;2023-06-26T04:18:07;10.10;;;5.70;;
72286;SDS011;60221;45.696;16.076;2023-06-26T04:20:38;8.60;;;5.20;;
72286;SDS011;60221;45.696;16.076;2023-06-26T04:23:06;8.50;;;5.40;;
72286;SDS011;60221;45.696;16.076;2023-06-26T04:25:32;9.20;;;6.10;;
72286;SDS011;60221;45.696;16.076;2023-06-26T04:27:59;8.60;;;5.80;;
72286;SDS011;60221;45.696;16.076;2023-06-26T04:30:26;9.30;;;6.40;;
72286;SDS011;60221;45.696;16.076;2023-06-26T04:32:52;10.80;;;6.70;;
72286;SDS011;60221;45.696;16.076;2023-06-26T04:35:19;9.90;;;7.10;;
72286;SDS011;60221;45.696;16.076;2023-06-26T04:37:47;9.50;;;6.80;;
72286;SDS011;60221;45.696;16.076;2023-06-26T04:40:14;8.40;;;6.50;;
72286;SDS011;60221;45.696;16.076;2023-06-26T04:42:41;9.60;;;6.80;;
72286;SDS011;60221;45.696;16.076;2023-06-26T04:45:07;9.00;;;6.90;;
72286;SDS011;60221;45.696;16.076;2023-06-26T04:47:34;9.10;;;6.70;;
72286;SDS011;60221;45.696;16.076;2023-06-26T04:50:01;10.70;;;7.50;;
72286;SDS011;60221;45.696;16.076;2023-06-26T04:52:27;8.60;;;6.90;;
72286;SDS011;60221;45.696;16.076;2023-06-26T04:54:54;8.80;;;7.70;;
72286;SDS011;60221;45.696;16.076;2023-06-26T04:57:21;9.70;;;8.10;;
72286;SDS011;60221;45.696;16.076;2023-06-26T04:59:47;8.80;;;7.60;;
72286;SDS011;60221;45.696;16.076;2023-06-26T05:02:14;9.10;;;7.80;;
72286;SDS011;60221;45.696;16.076;2023-06-26T05:04:41;11.80;;;8.80;;
72286;SDS011;60221;45.696;16.076;2023-06-26T05:07:09;9.70;;;7.50;;
72286;SDS011;60221;45.696;16.076;2023-06-26T05:09:35;9.90;;;8.00;;
72286;SDS011;60221;45.696;16.076;2023-06-26T05:12:02;11.60;;;8.70;;
72286;SDS011;60221;45.696;16.076;2023-06-26T05:14:29;9.50;;;8.00;;
72286;SDS011;60221;45.696;16.076;2023-06-26T05:16:56;9.10;;;7.50;;
72286;SDS011;60221;45.696;16.076;2023-06-26T05:19:22;9.40;;;7.90;;
72286;SDS011;60221;45.696;16.076;2023-06-26T05:21:49;10.10;;;8.20;;
72286;SDS011;60221;45.696;16.076;2023-06-26T05:24:16;9.20;;;8.00;;
72286;SDS011;60221;45.696;16.076;2023-06-26T05:26:43;9.30;;;7.80;;
72286;SDS011;60221;45.696;16.076;2023-06-26T05:29:10;11.20;;;7.80;;
72286;SDS011;60221;45.696;16.076;2023-06-26T05:31:38;9.20;;;7.20;;
72286;SDS011;60221;45.696;16.076;2023-06-26T05:34:06;13.30;;;9.00;;
72286;SDS011;60221;45.696;16.076;2023-06-26T05:36:33;10.70;;;8.00;;
72286;SDS011;60221;45.696;16.076;2023-06-26T05:39:01;9.30;;;7.70;;
72286;SDS011;60221;45.696;16.076;2023-06-26T05:41:28;9.50;;;7.80;;
72286;SDS011;60221;45.696;16.076;2023-06-26T05:43:55;10.40;;;7.90;;
72286;SDS011;60221;45.696;16.076;2023-06-26T05:46:22;10.20;;;8.40;;
72286;SDS011;60221;45.696;16.076;2023-06-26T05:48:49;10.00;;;8.20;;
72286;SDS011;60221;45.696;16.076;2023-06-26T05:51:15;11.30;;;8.70;;
72286;SDS011;60221;45.696;16.076;2023-06-26T05:53:42;10.30;;;8.70;;
72286;SDS011;60221;45.696;16.076;2023-06-26T05:56:09;9.90;;;7.70;;
72286;SDS011;60221;45.696;16.076;2023-06-26T05:58:36;9.10;;;7.90;;
72286;SDS011;60221;45.696;16.076;2023-06-26T06:01:03;12.40;;;10.00;;
72286;SDS011;60221;45.696;16.076;2023-06-26T06:03:30;9.50;;;8.50;;
72286;SDS011;60221;45.696;16.076;2023-06-26T06:05:56;10.00;;;8.40;;
72286;SDS011;60221;45.696;16.076;2023-06-26T06:08:23;10.00;;;8.30;;
72286;SDS011;60221;45.696;16.076;2023-06-26T06:10:50;8.70;;;7.80;;
72286;SDS011;60221;45.696;16.076;2023-06-26T06:13:16;12.70;;;8.90;;
72286;SDS011;60221;45.696;16.076;2023-06-26T06:15:43;8.50;;;7.60;;
72286;SDS011;60221;45.696;16.076;2023-06-26T06:18:10;11.80;;;8.80;;
72286;SDS011;60221;45.696;16.076;2023-06-26T06:20:36;10.50;;;7.60;;
72286;SDS011;60221;45.696;16.076;2023-06-26T06:23:04;13.00;;;8.90;;
72286;SDS011;60221;45.696;16.076;2023-06-26T06:25:30;9.20;;;7.90;;
72286;SDS011;60221;45.696;16.076;2023-06-26T06:27:57;10.30;;;8.30;;
72286;SDS011;60221;45.696;16.076;2023-06-26T06:30:24;9.50;;;8.00;;
72286;SDS011;60221;45.696;16.076;2023-06-26T06:33:09;9.40;;;8.20;;
72286;SDS011;60221;45.696;16.076;2023-06-26T06:35:35;10.10;;;9.00;;
72286;SDS011;60221;45.696;16.076;2023-06-26T06:38:02;10.90;;;8.50;;
72286;SDS011;60221;45.696;16.076;2023-06-26T06:40:29;16.30;;;11.60;;
72286;SDS011;60221;45.696;16.076;2023-06-26T06:42:56;10.90;;;8.60;;
72286;SDS011;60221;45.696;16.076;2023-06-26T06:45:22;9.50;;;8.40;;
72286;SDS011;60221;45.696;16.076;2023-06-26T06:47:49;11.20;;;8.80;;
72286;SDS011;60221;45.696;16.076;2023-06-26T06:50:16;15.20;;;11.40;;
72286;SDS011;60221;45.696;16.076;2023-06-26T06:52:44;13.40;;;10.80;;
72286;SDS011;60221;45.696;16.076;2023-06-26T06:55:11;12.10;;;9.90;;
72286;SDS011;60221;45.696;16.076;2023-06-26T06:57:39;11.00;;;8.80;;
72286;SDS011;60221;45.696;16.076;2023-06-26T07:00:09;12.40;;;8.20;;
72286;SDS011;60221;45.696;16.076;2023-06-26T07:02:37;12.90;;;8.60;;
72286;SDS011;60221;45.696;16.076;2023-06-26T07:05:04;10.10;;;7.70;;
72286;SDS011;60221;45.696;16.076;2023-06-26T07:07:32;10.50;;;7.80;;
72286;SDS011;60221;45.696;16.076;2023-06-26T07:09:59;9.50;;;7.60;;
72286;SDS011;60221;45.696;16.076;2023-06-26T07:12:26;10.20;;;8.10;;
72286;SDS011;60221;45.696;16.076;2023-06-26T07:14:53;9.70;;;7.90;;
72286;SDS011;60221;45.696;16.076;2023-06-26T07:17:20;10.20;;;7.20;;
72286;SDS011;60221;45.696;16.076;2023-06-26T07:19:48;9.30;;;7.40;;
72286;SDS011;60221;45.696;16.076;2023-06-26T07:22:14;9.20;;;7.30;;
72286;SDS011;60221;45.696;16.076;2023-06-26T07:24:41;9.10;;;6.60;;
72286;SDS011;60221;45.696;16.076;2023-06-26T07:27:08;10.10;;;7.30;;
72286;SDS011;60221;45.696;16.076;2023-06-26T07:29:34;9.00;;;7.60;;
72286;SDS011;60221;45.696;16.076;2023-06-26T07:32:01;10.60;;;7.70;;
72286;SDS011;60221;45.696;16.076;2023-06-26T07:34:28;9.30;;;6.50;;
72286;SDS011;60221;45.696;16.076;2023-06-26T07:36:54;10.40;;;7.20;;
72286;SDS011;60221;45.696;16.076;2023-06-26T07:39:21;9.00;;;7.60;;
72286;SDS011;60221;45.696;16.076;2023-06-26T07:41:49;13.40;;;7.80;;
72286;SDS011;60221;45.696;16.076;2023-06-26T07:44:16;10.90;;;6.90;;
72286;SDS011;60221;45.696;16.076;2023-06-26T07:46:42;9.20;;;6.80;;
72286;SDS011;60221;45.696;16.076;2023-06-26T07:49:09;9.70;;;7.00;;
72286;SDS011;60221;45.696;16.076;2023-06-26T07:51:36;13.00;;;6.90;;
72286;SDS011;60221;45.696;16.076;2023-06-26T07:54:03;11.80;;;6.90;;
72286;SDS011;60221;45.696;16.076;2023-06-26T07:56:30;9.00;;;6.60;;
72286;SDS011;60221;45.696;16.076;2023-06-26T07:58:56;10.10;;;6.70;;
72286;SDS011;60221;45.696;16.076;2023-06-26T08:01:26;10.70;;;7.20;;
72286;SDS011;60221;45.696;16.076;2023-06-26T08:03:53;9.50;;;6.50;;
72286;SDS011;60221;45.696;16.076;2023-06-26T08:06:21;9.90;;;7.40;;
72286;SDS011;60221;45.696;16.076;2023-06-26T08:08:47;10.10;;;7.30;;
72286;SDS011;60221;45.696;16.076;2023-06-26T08:11:14;8.90;;;7.30;;
72286;SDS011;60221;45.696;16.076;2023-06-26T08:13:41;8.30;;;6.70;;
72286;SDS011;60221;45.696;16.076;2023-06-26T08:16:07;8.00;;;6.30;;
72286;SDS011;60221;45.696;16.076;2023-06-26T08:18:34;8.30;;;6.00;;
72286;SDS011;60221;45.696;16.076;2023-06-26T08:21:01;11.10;;;7.00;;
72286;SDS011;60221;45.696;16.076;2023-06-26T08:23:27;9.50;;;6.90;;
72286;SDS011;60221;45.696;16.076;2023-06-26T08:25:54;10.30;;;6.60;;
72286;SDS011;60221;45.696;16.076;2023-06-26T08:28:24;8.80;;;6.80;;
72286;SDS011;60221;45.696;16.076;2023-06-26T08:30:50;9.00;;;6.40;;
72286;SDS011;60221;45.696;16.076;2023-06-26T08:33:17;8.30;;;6.50;;
72286;SDS011;60221;45.696;16.076;2023-06-26T08:35:44;9.80;;;7.00;;
72286;SDS011;60221;45.696;16.076;2023-06-26T08:38:11;9.10;;;6.40;;
72286;SDS011;60221;45.696;16.076;2023-06-26T08:40:37;12.80;;;7.00;;
72286;SDS011;60221;45.696;16.076;2023-06-26T08:43:05;7.90;;;6.30;;
72286;SDS011;60221;45.696;16.076;2023-06-26T08:45:31;10.10;;;6.60;;
72286;SDS011;60221;45.696;16.076;2023-06-26T08:48:00;10.50;;;6.60;;
72286;SDS011;60221;45.696;16.076;2023-06-26T08:50:28;9.60;;;7.00;;
72286;SDS011;60221;45.696;16.076;2023-06-26T08:52:59;8.10;;;6.70;;
72286;SDS011;60221;45.696;16.076;2023-06-26T08:55:30;8.50;;;6.50;;
72286;SDS011;60221;45.696;16.076;2023-06-26T08:57:58;9.60;;;6.40;;
72286;SDS011;60221;45.696;16.076;2023-06-26T09:00:24;7.70;;;6.10;;
72286;SDS011;60221;45.696;16.076;2023-06-26T09:02:51;9.50;;;6.20;;
72286;SDS011;60221;45.696;16.076;2023-06-26T09:05:18;10.60;;;6.30;;
72286;SDS011;60221;45.696;16.076;2023-06-26T09:07:45;8.50;;;6.10;;
72286;SDS011;60221;45.696;16.076;2023-06-26T09:10:12;8.60;;;6.20;;
72286;SDS011;60221;45.696;16.076;2023-06-26T09:12:39;10.10;;;6.70;;
72286;SDS011;60221;45.696;16.076;2023-06-26T09:15:06;8.80;;;6.20;;
72286;SDS011;60221;45.696;16.076;2023-06-26T09:17:33;9.30;;;6.30;;
72286;SDS011;60221;45.696;16.076;2023-06-26T09:20:00;8.60;;;5.70;;
72286;SDS011;60221;45.696;16.076;2023-06-26T09:22:27;8.50;;;5.70;;
72286;SDS011;60221;45.696;16.076;2023-06-26T09:24:53;8.00;;;5.90;;
72286;SDS011;60221;45.696;16.076;2023-06-26T09:27:20;8.90;;;5.50;;
72286;SDS011;60221;45.696;16.076;2023-06-26T09:29:47;8.80;;;5.40;;
72286;SDS011;60221;45.696;16.076;2023-06-26T09:32:14;8.50;;;5.50;;
72286;SDS011;60221;45.696;16.076;2023-06-26T09:34:42;7.50;;;5.40;;
72286;SDS011;60221;45.696;16.076;2023-06-26T09:37:11;9.90;;;5.60;;
72286;SDS011;60221;45.696;16.076;2023-06-26T09:39:37;7.30;;;5.20;;
72286;SDS011;60221;45.696;16.076;2023-06-26T09:42:04;7.30;;;5.30;;
72286;SDS011;60221;45.696;16.076;2023-06-26T09:44:33;6.70;;;4.60;;
72286;SDS011;60221;45.696;16.076;2023-06-26T09:47:01;8.30;;;4.50;;
72286;SDS011;60221;45.696;16.076;2023-06-26T09:49:28;10.20;;;4.60;;
72286;SDS011;60221;45.696;16.076;2023-06-26T09:51:55;7.20;;;5.10;;
72286;SDS011;60221;45.696;16.076;2023-06-26T09:54:22;7.50;;;4.90;;
72286;SDS011;60221;45.696;16.076;2023-06-26T09:56:49;9.70;;;5.70;;
72286;SDS011;60221;45.696;16.076;2023-06-26T09:59:15;7.40;;;5.10;;
72286;SDS011;60221;45.696;16.076;2023-06-26T10:01:45;13.50;;;8.60;;
72286;SDS011;60221;45.696;16.076;2023-06-26T10:04:12;8.20;;;5.50;;
72286;SDS011;60221;45.696;16.076;2023-06-26T10:06:41;8.40;;;5.00;;
72286;SDS011;60221;45.696;16.076;2023-06-26T10:09:11;7.20;;;4.90;;
72286;SDS011;60221;45.696;16.076;2023-06-26T10:11:40;13.20;;;9.70;;
72286;SDS011;60221;45.696;16.076;2023-06-26T10:14:08;19.60;;;15.50;;
72286;SDS011;60221;45.696;16.076;2023-06-26T10:16:44;10.80;;;6.80;;
72286;SDS011;60221;45.696;16.076;2023-06-26T10:19:12;9.40;;;5.60;;
72286;SDS011;60221;45.696;16.076;2023-06-26T10:21:39;8.20;;;6.50;;
72286;SDS011;60221;45.696;16.076;2023-06-26T10:24:06;8.70;;;5.80;;
72286;SDS011;60221;45.696;16.076;2023-06-26T10:26:35;9.80;;;7.60;;
72286;SDS011;60221;45.696;16.076;2023-06-26T10:29:03;8.60;;;6.90;;
72286;SDS011;60221;45.696;16.076;2023-06-26T10:31:31;8.50;;;5.90;;
72286;SDS011;60221;45.696;16.076;2023-06-26T10:33:59;8.40;;;5.60;;
72286;SDS011;60221;45.696;16.076;2023-06-26T10:36:30;7.60;;;5.70;;
72286;SDS011;60221;45.696;16.076;2023-06-26T10:38:59;9.20;;;6.00;;
72286;SDS011;60221;45.696;16.076;2023-06-26T10:41:28;7.60;;;5.30;;
72286;SDS011;60221;45.696;16.076;2023-06-26T10:46:32;10.50;;;6.20;;
72286;SDS011;60221;45.696;16.076;2023-06-26T10:49:00;9.30;;;6.60;;
72286;SDS011;60221;45.696;16.076;2023-06-26T10:51:27;16.60;;;5.90;;
72286;SDS011;60221;45.696;16.076;2023-06-26T10:53:54;7.50;;;6.00;;
72286;SDS011;60221;45.696;16.076;2023-06-26T10:56:21;6.80;;;5.80;;
72286;SDS011;60221;45.696;16.076;2023-06-26T10:59:13;9.40;;;6.30;;
72286;SDS011;60221;45.696;16.076;2023-06-26T11:01:44;9.20;;;5.70;;
72286;SDS011;60221;45.696;16.076;2023-06-26T11:04:12;7.20;;;5.20;;
72286;SDS011;60221;45.696;16.076;2023-06-26T11:06:41;8.70;;;5.50;;
72286;SDS011;60221;45.696;16.076;2023-06-26T11:09:13;7.00;;;5.40;;
72286;SDS011;60221;45.696;16.076;2023-06-26T11:14:20;10.50;;;6.30;;
72286;SDS011;60221;45.696;16.076;2023-06-26T11:16:47;8.90;;;5.80;;
72286;SDS011;60221;45.696;16.076;2023-06-26T11:19:16;7.10;;;5.30;;
72286;SDS011;60221;45.696;16.076;2023-06-26T11:21:43;7.90;;;5.30;;
72286;SDS011;60221;45.696;16.076;2023-06-26T11:24:10;6.50;;;4.80;;
72286;SDS011;60221;45.696;16.076;2023-06-26T11:26:37;6.80;;;4.50;;
72286;SDS011;60221;45.696;16.076;2023-06-26T11:29:04;6.90;;;4.90;;
72286;SDS011;60221;45.696;16.076;2023-06-26T11:31:32;7.30;;;5.00;;
72286;SDS011;60221;45.696;16.076;2023-06-26T11:33:59;5.80;;;4.30;;
72286;SDS011;60221;45.696;16.076;2023-06-26T11:36:27;9.00;;;4.90;;
72286;SDS011;60221;45.696;16.076;2023-06-26T11:38:57;8.70;;;5.00;;
72286;SDS011;60221;45.696;16.076;2023-06-26T11:41:26;7.30;;;5.00;;
72286;SDS011;60221;45.696;16.076;2023-06-26T11:43:52;6.20;;;4.60;;
72286;SDS011;60221;45.696;16.076;2023-06-26T11:46:20;7.50;;;5.00;;
72286;SDS011;60221;45.696;16.076;2023-06-26T11:48:47;6.30;;;4.70;;
72286;SDS011;60221;45.696;16.076;2023-06-26T11:51:17;7.80;;;5.00;;
72286;SDS011;60221;45.696;16.076;2023-06-26T11:53:45;6.70;;;4.50;;
72286;SDS011;60221;45.696;16.076;2023-06-26T11:56:13;6.30;;;4.70;;
72286;SDS011;60221;45.696;16.076;2023-06-26T12:01:30;6.30;;;4.40;;
72286;SDS011;60221;45.696;16.076;2023-06-26T12:04:01;8.00;;;4.60;;
72286;SDS011;60221;45.696;16.076;2023-06-26T12:06:30;7.40;;;4.80;;
72286;SDS011;60221;45.696;16.076;2023-06-26T12:08:58;8.30;;;4.40;;
72286;SDS011;60221;45.696;16.076;2023-06-26T12:11:25;8.40;;;4.40;;
72286;SDS011;60221;45.696;16.076;2023-06-26T12:13:56;8.60;;;4.90;;
72286;SDS011;60221;45.696;16.076;2023-06-26T12:16:22;7.40;;;4.60;;
72286;SDS011;60221;45.696;16.076;2023-06-26T12:18:49;6.80;;;4.50;;
72286;SDS011;60221;45.696;16.076;2023-06-26T12:24:01;6.70;;;4.60;;
72286;SDS011;60221;45.696;16.076;2023-06-26T12:26:28;6.40;;;4.70;;
72286;SDS011;60221;45.696;16.076;2023-06-26T12:29:03;7.60;;;5.50;;
72286;SDS011;60221;45.696;16.076;2023-06-26T12:31:30;7.60;;;4.80;;
72286;SDS011;60221;45.696;16.076;2023-06-26T12:33:57;7.70;;;4.90;;
72286;SDS011;60221;45.696;16.076;2023-06-26T12:36:24;6.10;;;4.30;;
72286;SDS011;60221;45.696;16.076;2023-06-26T12:38:52;7.70;;;4.80;;
72286;SDS011;60221;45.696;16.076;2023-06-26T12:41:19;6.40;;;4.80;;
72286;SDS011;60221;45.696;16.076;2023-06-26T12:43:46;8.20;;;4.90;;
72286;SDS011;60221;45.696;16.076;2023-06-26T12:46:13;7.10;;;4.40;;
72286;SDS011;60221;45.696;16.076;2023-06-26T12:48:40;7.70;;;5.00;;
72286;SDS011;60221;45.696;16.076;2023-06-26T12:51:10;7.60;;;4.50;;
72286;SDS011;60221;45.696;16.076;2023-06-26T12:53:37;8.30;;;4.60;;
72286;SDS011;60221;45.696;16.076;2023-06-26T12:56:06;6.60;;;4.70;;
72286;SDS011;60221;45.696;16.076;2023-06-26T12:58:34;6.30;;;4.70;;
72286;SDS011;60221;45.696;16.076;2023-06-26T13:01:04;7.70;;;5.10;;
72286;SDS011;60221;45.696;16.076;2023-06-26T13:03:31;7.50;;;4.90;;
72286;SDS011;60221;45.696;16.076;2023-06-26T13:05:59;6.70;;;4.60;;
72286;SDS011;60221;45.696;16.076;2023-06-26T13:08:26;7.90;;;4.40;;
72286;SDS011;60221;45.696;16.076;2023-06-26T13:10:53;7.00;;;4.70;;
72286;SDS011;60221;45.696;16.076;2023-06-26T13:13:19;7.80;;;4.60;;
72286;SDS011;60221;45.696;16.076;2023-06-26T13:15:46;6.50;;;4.60;;
72286;SDS011;60221;45.696;16.076;2023-06-26T13:18:13;8.00;;;5.20;;
72286;SDS011;60221;45.696;16.076;2023-06-26T13:20:39;6.60;;;4.80;;
72286;SDS011;60221;45.696;16.076;2023-06-26T13:23:06;8.10;;;4.70;;
72286;SDS011;60221;45.696;16.076;2023-06-26T13:25:33;7.40;;;4.50;;
72286;SDS011;60221;45.696;16.076;2023-06-26T13:28:00;6.50;;;4.60;;
72286;SDS011;60221;45.696;16.076;2023-06-26T13:30:27;5.40;;;3.90;;
72286;SDS011;60221;45.696;16.076;2023-06-26T13:32:53;6.50;;;4.80;;
72286;SDS011;60221;45.696;16.076;2023-06-26T13:35:20;6.60;;;4.60;;
72286;SDS011;60221;45.696;16.076;2023-06-26T13:37:47;7.20;;;4.80;;
72286;SDS011;60221;45.696;16.076;2023-06-26T13:40:13;7.50;;;4.10;;
72286;SDS011;60221;45.696;16.076;2023-06-26T13:42:40;9.20;;;4.70;;
72286;SDS011;60221;45.696;16.076;2023-06-26T13:45:07;6.60;;;4.40;;
72286;SDS011;60221;45.696;16.076;2023-06-26T13:47:51;13.90;;;5.40;;
72286;SDS011;60221;45.696;16.076;2023-06-26T13:50:18;14.90;;;5.50;;
72286;SDS011;60221;45.696;16.076;2023-06-26T13:52:45;8.30;;;5.10;;
72286;SDS011;60221;45.696;16.076;2023-06-26T13:55:11;7.60;;;5.20;;
72286;SDS011;60221;45.696;16.076;2023-06-26T13:57:38;8.40;;;5.20;;
72286;SDS011;60221;45.696;16.076;2023-06-26T14:00:08;8.00;;;5.00;;
72286;SDS011;60221;45.696;16.076;2023-06-26T14:02:37;8.20;;;4.70;;
72286;SDS011;60221;45.696;16.076;2023-06-26T14:05:04;7.60;;;4.90;;
72286;SDS011;60221;45.696;16.076;2023-06-26T14:07:31;6.90;;;5.40;;
72286;SDS011;60221;45.696;16.076;2023-06-26T14:09:58;8.00;;;5.30;;
72286;SDS011;60221;45.696;16.076;2023-06-26T14:12:24;8.80;;;5.90;;
72286;SDS011;60221;45.696;16.076;2023-06-26T14:14:51;9.70;;;5.60;;
72286;SDS011;60221;45.696;16.076;2023-06-26T14:17:18;7.60;;;5.00;;
72286;SDS011;60221;45.696;16.076;2023-06-26T14:19:45;7.50;;;4.90;;
72286;SDS011;60221;45.696;16.076;2023-06-26T14:22:12;13.50;;;5.00;;
72286;SDS011;60221;45.696;16.076;2023-06-26T14:24:39;46.90;;;8.10;;
72286;SDS011;60221;45.696;16.076;2023-06-26T14:27:06;7.70;;;5.10;;
72286;SDS011;60221;45.696;16.076;2023-06-26T14:29:32;6.40;;;4.50;;
72286;SDS011;60221;45.696;16.076;2023-06-26T14:31:59;7.70;;;4.80;;
72286;SDS011;60221;45.696;16.076;2023-06-26T14:34:26;6.00;;;4.50;;
72286;SDS011;60221;45.696;16.076;2023-06-26T14:36:52;7.70;;;5.30;;
72286;SDS011;60221;45.696;16.076;2023-06-26T14:39:19;7.80;;;5.20;;
72286;SDS011;60221;45.696;16.076;2023-06-26T14:41:46;14.20;;;5.50;;
72286;SDS011;60221;45.696;16.076;2023-06-26T14:44:15;9.10;;;4.50;;
72286;SDS011;60221;45.696;16.076;2023-06-26T14:46:42;8.00;;;4.60;;